AU-0106 weather

Valley View
Geraldton, Western Australia, Australia

Public forecast

Using degrees Celsius for public forecast. Weather courtesy of forecast.io.

METAR (pilot weather report)

Closest report is Geraldton Airport, 12.2 nm (22.6 km) WSW. Retrieved 2019/03/24 10:30 UTC (24 minutes ago):

YGEL 241030Z AUTO 17015KT 9999 // NCD 22/17 Q1012 RF00.0/000.0

TAF (pilot weather forecast)

Forecast is more than 12 hours old.

Closest forecast is Geraldton Airport, 12.2 nm (22.6 km) WSW. Retrieved 2019/03/23 00:00 UTC (1 day ago):

TAF YGEL 232217Z 2400/2418 15014KT CAVOK FM240500 18020KT CAVOK FM241300 14014KT CAVOK